sensor_id;sensor_type;location;lat;lon;timestamp;pressure;altitude;pressure_sealevel;temperature;humidity
4133;BME280;2080;51.038;7.008;2023-05-14T00:00:03;47810.41;;;-142.53;100.00
4133;BME280;2080;51.038;7.008;2023-05-14T00:02:29;47821.94;;;-142.53;100.00
4133;BME280;2080;51.038;7.008;2023-05-14T00:04:54;47810.41;;;-142.53;100.00
4133;BME280;2080;51.038;7.008;2023-05-14T00:07:19;47814.25;;;-142.53;100.00
4133;BME280;2080;51.038;7.008;2023-05-14T00:09:45;47829.66;;;-142.53;100.00
4133;BME280;2080;51.038;7.008;2023-05-14T00:12:10;47818.09;;;-142.53;100.00
4133;BME280;2080;51.038;7.008;2023-05-14T00:14:35;47820.03;;;-142.53;100.00
4133;BME280;2080;51.038;7.008;2023-05-14T00:17:01;47791.13;;;-142.53;100.00
4133;BME280;2080;51.038;7.008;2023-05-14T00:19:26;47820.03;;;-142.53;100.00
4133;BME280;2080;51.038;7.008;2023-05-14T00:21:51;47866.25;;;-142.53;100.00
4133;BME280;2080;51.038;7.008;2023-05-14T00:24:17;47845.06;;;-142.53;100.00
4133;BME280;2080;51.038;7.008;2023-05-14T00:26:42;47852.78;;;-142.53;100.00
4133;BME280;2080;51.038;7.008;2023-05-14T00:29:10;47837.38;;;-142.53;100.00
4133;BME280;2080;51.038;7.008;2023-05-14T00:31:35;47816.19;;;-142.53;100.00
4133;BME280;2080;51.038;7.008;2023-05-14T00:34:03;47796.91;;;-142.53;100.00
4133;BME280;2080;51.038;7.008;2023-05-14T00:36:31;47845.06;;;-142.53;100.00
4133;BME280;2080;51.038;7.008;2023-05-14T00:38:56;47831.59;;;-142.53;100.00
4133;BME280;2080;51.038;7.008;2023-05-14T00:41:22;47852.78;;;-142.53;100.00
4133;BME280;2080;51.038;7.008;2023-05-14T00:43:52;47864.31;;;-142.53;100.00
4133;BME280;2080;51.038;7.008;2023-05-14T00:46:17;47848.91;;;-142.53;100.00
4133;BME280;2080;51.038;7.008;2023-05-14T00:48:43;47833.50;;;-142.53;100.00
4133;BME280;2080;51.038;7.008;2023-05-14T00:51:09;47848.91;;;-142.53;100.00
4133;BME280;2080;51.038;7.008;2023-05-14T00:53:35;47848.91;;;-142.53;100.00
4133;BME280;2080;51.038;7.008;2023-05-14T00:56:01;47843.13;;;-142.53;100.00
4133;BME280;2080;51.038;7.008;2023-05-14T00:58:29;47845.06;;;-142.53;100.00
4133;BME280;2080;51.038;7.008;2023-05-14T01:00:54;47848.91;;;-142.53;100.00
4133;BME280;2080;51.038;7.008;2023-05-14T01:03:22;47806.53;;;-142.53;100.00
4133;BME280;2080;51.038;7.008;2023-05-14T01:11:54;47806.53;;;-142.53;100.00
4133;BME280;2080;51.038;7.008;2023-05-14T01:16:57;47814.25;;;-142.53;100.00
4133;BME280;2080;51.038;7.008;2023-05-14T01:21:58;47856.63;;;-142.53;100.00
4133;BME280;2080;51.038;7.008;2023-05-14T01:24:26;47852.78;;;-142.53;100.00
4133;BME280;2080;51.038;7.008;2023-05-14T01:26:54;47850.84;;;-142.53;100.00
4133;BME280;2080;51.038;7.008;2023-05-14T01:29:25;47818.09;;;-142.53;100.00
4133;BME280;2080;51.038;7.008;2023-05-14T01:31:54;47783.44;;;-142.53;100.00
4133;BME280;2080;51.038;7.008;2023-05-14T01:34:25;47868.19;;;-142.53;100.00
4133;BME280;2080;51.038;7.008;2023-05-14T01:36:52;47804.63;;;-142.53;100.00
4133;BME280;2080;51.038;7.008;2023-05-14T01:39:21;47821.94;;;-142.53;100.00
4133;BME280;2080;51.038;7.008;2023-05-14T01:41:50;47837.38;;;-142.53;100.00
4133;BME280;2080;51.038;7.008;2023-05-14T01:44:20;47810.41;;;-142.53;100.00
4133;BME280;2080;51.038;7.008;2023-05-14T01:46:45;47848.91;;;-142.53;100.00
4133;BME280;2080;51.038;7.008;2023-05-14T01:49:11;47848.91;;;-142.53;100.00
4133;BME280;2080;51.038;7.008;2023-05-14T01:51:36;47787.28;;;-142.53;100.00
4133;BME280;2080;51.038;7.008;2023-05-14T01:54:02;47839.28;;;-142.53;100.00
4133;BME280;2080;51.038;7.008;2023-05-14T01:56:27;47864.31;;;-142.53;100.00
4133;BME280;2080;51.038;7.008;2023-05-14T01:58:52;47843.13;;;-142.53;100.00
4133;BME280;2080;51.038;7.008;2023-05-14T02:01:21;47848.91;;;-142.53;100.00
4133;BME280;2080;51.038;7.008;2023-05-14T02:03:46;47760.31;;;-142.53;100.00
4133;BME280;2080;51.038;7.008;2023-05-14T02:06:14;47814.25;;;-142.53;100.00
4133;BME280;2080;51.038;7.008;2023-05-14T02:08:44;47821.94;;;-142.53;100.00
4133;BME280;2080;51.038;7.008;2023-05-14T02:11:10;47821.94;;;-142.53;100.00
4133;BME280;2080;51.038;7.008;2023-05-14T02:13:35;47802.69;;;-142.53;100.00
4133;BME280;2080;51.038;7.008;2023-05-14T02:16:00;47845.06;;;-142.53;100.00
4133;BME280;2080;51.038;7.008;2023-05-14T02:18:28;47814.25;;;-142.53;100.00
4133;BME280;2080;51.038;7.008;2023-05-14T02:20:58;47848.91;;;-142.53;100.00
4133;BME280;2080;51.038;7.008;2023-05-14T02:23:23;47814.25;;;-142.53;100.00
4133;BME280;2080;51.038;7.008;2023-05-14T02:25:49;47833.50;;;-142.53;100.00
4133;BME280;2080;51.038;7.008;2023-05-14T02:28:16;47843.13;;;-142.53;100.00
4133;BME280;2080;51.038;7.008;2023-05-14T02:30:44;47864.31;;;-142.53;100.00
4133;BME280;2080;51.038;7.008;2023-05-14T02:33:09;47837.38;;;-142.53;100.00
4133;BME280;2080;51.038;7.008;2023-05-14T02:35:34;47821.94;;;-142.53;100.00
4133;BME280;2080;51.038;7.008;2023-05-14T02:38:02;47839.28;;;-142.53;100.00
4133;BME280;2080;51.038;7.008;2023-05-14T02:40:28;47831.59;;;-142.53;100.00
4133;BME280;2080;51.038;7.008;2023-05-14T02:42:53;47825.81;;;-142.53;100.00
4133;BME280;2080;51.038;7.008;2023-05-14T02:45:18;47845.06;;;-142.53;100.00
4133;BME280;2080;51.038;7.008;2023-05-14T02:47:44;47812.31;;;-142.53;100.00
4133;BME280;2080;51.038;7.008;2023-05-14T02:50:09;47825.81;;;-142.53;100.00
4133;BME280;2080;51.038;7.008;2023-05-14T02:52:35;47814.25;;;-142.53;100.00
4133;BME280;2080;51.038;7.008;2023-05-14T02:55:01;47860.47;;;-142.53;100.00
4133;BME280;2080;51.038;7.008;2023-05-14T02:57:26;47833.50;;;-142.53;100.00
4133;BME280;2080;51.038;7.008;2023-05-14T02:59:51;47858.56;;;-142.53;100.00
4133;BME280;2080;51.038;7.008;2023-05-14T03:02:19;47848.91;;;-142.53;100.00
4133;BME280;2080;51.038;7.008;2023-05-14T03:04:51;47852.78;;;-142.53;100.00
4133;BME280;2080;51.038;7.008;2023-05-14T03:07:17;47837.38;;;-142.53;100.00
4133;BME280;2080;51.038;7.008;2023-05-14T03:09:42;47829.66;;;-142.53;100.00
4133;BME280;2080;51.038;7.008;2023-05-14T03:12:08;47825.81;;;-142.53;100.00
4133;BME280;2080;51.038;7.008;2023-05-14T03:14:33;47860.47;;;-142.53;100.00
4133;BME280;2080;51.038;7.008;2023-05-14T03:17:00;47864.31;;;-142.53;100.00
4133;BME280;2080;51.038;7.008;2023-05-14T03:19:28;47829.66;;;-142.53;100.00
4133;BME280;2080;51.038;7.008;2023-05-14T03:21:53;47862.41;;;-142.53;100.00
4133;BME280;2080;51.038;7.008;2023-05-14T03:24:18;47860.47;;;-142.53;100.00
4133;BME280;2080;51.038;7.008;2023-05-14T03:26:44;47873.97;;;-142.53;100.00
4133;BME280;2080;51.038;7.008;2023-05-14T03:29:11;47847.00;;;-142.53;100.00
4133;BME280;2080;51.038;7.008;2023-05-14T03:31:39;47881.66;;;-142.53;100.00
4133;BME280;2080;51.038;7.008;2023-05-14T03:34:04;47835.44;;;-142.53;100.00
4133;BME280;2080;51.038;7.008;2023-05-14T03:36:32;47841.22;;;-142.53;100.00
4133;BME280;2080;51.038;7.008;2023-05-14T03:39:00;47845.06;;;-142.53;100.00
4133;BME280;2080;51.038;7.008;2023-05-14T03:41:26;47889.38;;;-142.53;100.00
4133;BME280;2080;51.038;7.008;2023-05-14T03:43:53;47798.84;;;-142.53;100.00
4133;BME280;2080;51.038;7.008;2023-05-14T03:46:21;47885.50;;;-142.53;100.00
4133;BME280;2080;51.038;7.008;2023-05-14T03:48:46;47872.03;;;-142.53;100.00
4133;BME280;2080;51.038;7.008;2023-05-14T03:51:15;47833.50;;;-142.53;100.00
4133;BME280;2080;51.038;7.008;2023-05-14T03:53:41;47858.56;;;-142.53;100.00
4133;BME280;2080;51.038;7.008;2023-05-14T03:56:06;47860.47;;;-142.53;100.00
4133;BME280;2080;51.038;7.008;2023-05-14T03:58:34;47883.59;;;-142.53;100.00
4133;BME280;2080;51.038;7.008;2023-05-14T04:01:02;47887.44;;;-142.53;100.00
4133;BME280;2080;51.038;7.008;2023-05-14T04:03:30;47872.03;;;-142.53;100.00
4133;BME280;2080;51.038;7.008;2023-05-14T04:05:57;47860.47;;;-142.53;100.00
4133;BME280;2080;51.038;7.008;2023-05-14T04:08:25;47864.31;;;-142.53;100.00
4133;BME280;2080;51.038;7.008;2023-05-14T04:10:50;47872.03;;;-142.53;100.00
4133;BME280;2080;51.038;7.008;2023-05-14T04:13:15;47848.91;;;-142.53;100.00
4133;BME280;2080;51.038;7.008;2023-05-14T04:15:44;47831.59;;;-142.53;100.00
4133;BME280;2080;51.038;7.008;2023-05-14T04:18:09;47841.22;;;-142.53;100.00
4133;BME280;2080;51.038;7.008;2023-05-14T04:20:35;47868.19;;;-142.53;100.00
4133;BME280;2080;51.038;7.008;2023-05-14T04:23:01;47802.69;;;-142.53;100.00
4133;BME280;2080;51.038;7.008;2023-05-14T04:25:28;47835.44;;;-142.53;100.00
4133;BME280;2080;51.038;7.008;2023-05-14T04:27:54;47872.03;;;-142.53;100.00
4133;BME280;2080;51.038;7.008;2023-05-14T04:30:20;47860.47;;;-142.53;100.00
4133;BME280;2080;51.038;7.008;2023-05-14T04:32:45;47845.06;;;-142.53;100.00
4133;BME280;2080;51.038;7.008;2023-05-14T04:35:10;47864.31;;;-142.53;100.00
4133;BME280;2080;51.038;7.008;2023-05-14T04:37:37;47868.19;;;-142.53;100.00
4133;BME280;2080;51.038;7.008;2023-05-14T04:40:06;47866.25;;;-142.53;100.00
4133;BME280;2080;51.038;7.008;2023-05-14T04:42:32;47833.50;;;-142.53;100.00
4133;BME280;2080;51.038;7.008;2023-05-14T04:45:00;47875.88;;;-142.53;100.00
4133;BME280;2080;51.038;7.008;2023-05-14T04:47:28;47802.69;;;-142.53;100.00
4133;BME280;2080;51.038;7.008;2023-05-14T04:49:58;47810.41;;;-142.53;100.00
4133;BME280;2080;51.038;7.008;2023-05-14T04:52:25;47795.00;;;-142.53;100.00
4133;BME280;2080;51.038;7.008;2023-05-14T04:54:51;47821.94;;;-142.53;100.00
4133;BME280;2080;51.038;7.008;2023-05-14T04:57:18;47806.53;;;-142.53;100.00
4133;BME280;2080;51.038;7.008;2023-05-14T04:59:46;47802.69;;;-142.53;100.00
4133;BME280;2080;51.038;7.008;2023-05-14T05:02:14;47823.88;;;-142.53;100.00
4133;BME280;2080;51.038;7.008;2023-05-14T05:04:44;47848.91;;;-142.53;100.00
4133;BME280;2080;51.038;7.008;2023-05-14T05:07:09;47764.16;;;-142.53;100.00
4133;BME280;2080;51.038;7.008;2023-05-14T05:09:35;47833.50;;;-142.53;100.00
4133;BME280;2080;51.038;7.008;2023-05-14T05:12:00;47791.13;;;-142.53;100.00
4133;BME280;2080;51.038;7.008;2023-05-14T05:14:26;47802.69;;;-142.53;100.00
4133;BME280;2080;51.038;7.008;2023-05-14T05:16:51;47795.00;;;-142.53;100.00
4133;BME280;2080;51.038;7.008;2023-05-14T05:19:17;47810.41;;;-142.53;100.00
4133;BME280;2080;51.038;7.008;2023-05-14T05:21:42;47821.94;;;-142.53;99.04
4133;BME280;2080;51.038;7.008;2023-05-14T05:24:07;47837.38;;;-142.53;97.53
4133;BME280;2080;51.038;7.008;2023-05-14T05:26:35;47795.00;;;-142.53;97.94
4133;BME280;2080;51.038;7.008;2023-05-14T05:29:04;47843.13;;;-142.53;95.75
4133;BME280;2080;51.038;7.008;2023-05-14T05:31:32;47821.94;;;-142.53;95.21
4133;BME280;2080;51.038;7.008;2023-05-14T05:33:59;47818.09;;;-142.53;94.78
4133;BME280;2080;51.038;7.008;2023-05-14T05:36:26;47795.00;;;-142.53;94.78
4133;BME280;2080;51.038;7.008;2023-05-14T05:38:52;47808.47;;;-142.53;93.04
4133;BME280;2080;51.038;7.008;2023-05-14T05:41:18;47795.00;;;-142.53;92.24
4133;BME280;2080;51.038;7.008;2023-05-14T05:43:43;47796.91;;;-142.53;91.08
4133;BME280;2080;51.038;7.008;2023-05-14T05:46:08;47775.72;;;-142.53;91.51
4133;BME280;2080;51.038;7.008;2023-05-14T05:48:34;47791.13;;;-142.53;90.45
4133;BME280;2080;51.038;7.008;2023-05-14T05:51:02;47756.47;;;-142.53;91.22
4133;BME280;2080;51.038;7.008;2023-05-14T05:53:29;47800.78;;;-142.53;91.00
4133;BME280;2080;51.038;7.008;2023-05-14T05:55:57;47831.59;;;-142.53;91.79
4133;BME280;2080;51.038;7.008;2023-05-14T05:58:22;47810.41;;;-142.53;93.17
4133;BME280;2080;51.038;7.008;2023-05-14T06:00:50;47810.41;;;-142.53;92.92
4133;BME280;2080;51.038;7.008;2023-05-14T06:03:15;47795.00;;;-142.53;93.88
4133;BME280;2080;51.038;7.008;2023-05-14T06:05:43;47841.22;;;-142.53;92.67
4133;BME280;2080;51.038;7.008;2023-05-14T06:08:08;47833.50;;;-142.53;93.30
4133;BME280;2080;51.038;7.008;2023-05-14T06:10:38;47814.25;;;-142.53;92.33
4133;BME280;2080;51.038;7.008;2023-05-14T06:13:04;47818.09;;;-142.53;93.53
4133;BME280;2080;51.038;7.008;2023-05-14T06:15:29;47798.84;;;-142.53;95.06
4133;BME280;2080;51.038;7.008;2023-05-14T06:17:57;47821.94;;;-142.53;95.05
4133;BME280;2080;51.038;7.008;2023-05-14T06:20:25;47802.69;;;-142.53;93.82
4133;BME280;2080;51.038;7.008;2023-05-14T06:22:50;47777.66;;;-142.53;94.15
4133;BME280;2080;51.038;7.008;2023-05-14T06:25:15;47760.31;;;-142.53;93.22
4133;BME280;2080;51.038;7.008;2023-05-14T06:27:41;47795.00;;;-142.53;93.43
4133;BME280;2080;51.038;7.008;2023-05-14T06:30:07;47771.88;;;-142.53;92.76
4133;BME280;2080;51.038;7.008;2023-05-14T06:32:32;47806.53;;;-142.53;92.36
4133;BME280;2080;51.038;7.008;2023-05-14T06:35:01;47783.44;;;-142.53;91.60
4133;BME280;2080;51.038;7.008;2023-05-14T06:37:26;47744.91;;;-142.53;91.37
4133;BME280;2080;51.038;7.008;2023-05-14T06:39:51;47779.59;;;-142.53;90.78
4133;BME280;2080;51.038;7.008;2023-05-14T06:42:17;47771.88;;;-142.53;90.38
4133;BME280;2080;51.038;7.008;2023-05-14T06:44:45;47810.41;;;-142.53;90.63
4133;BME280;2080;51.038;7.008;2023-05-14T06:47:10;47787.28;;;-142.53;90.67
4133;BME280;2080;51.038;7.008;2023-05-14T06:49:36;47760.31;;;-142.53;90.90
4133;BME280;2080;51.038;7.008;2023-05-14T06:52:02;47810.41;;;-142.53;90.83
4133;BME280;2080;51.038;7.008;2023-05-14T06:54:28;47787.28;;;-142.53;91.35
4133;BME280;2080;51.038;7.008;2023-05-14T06:56:53;47795.00;;;-142.53;90.66
4133;BME280;2080;51.038;7.008;2023-05-14T06:59:21;47841.22;;;-142.53;90.54
4133;BME280;2080;51.038;7.008;2023-05-14T07:01:48;47791.13;;;-142.53;89.61
4133;BME280;2080;51.038;7.008;2023-05-14T07:04:14;47764.16;;;-142.53;88.55
4133;BME280;2080;51.038;7.008;2023-05-14T07:06:39;47806.53;;;-142.53;88.07
4133;BME280;2080;51.038;7.008;2023-05-14T07:09:09;47775.72;;;-142.53;87.88
4133;BME280;2080;51.038;7.008;2023-05-14T07:11:37;47810.41;;;-142.53;86.86
4133;BME280;2080;51.038;7.008;2023-05-14T07:14:02;47748.75;;;-142.53;86.45
4133;BME280;2080;51.038;7.008;2023-05-14T07:16:27;47802.69;;;-142.53;86.14
4133;BME280;2080;51.038;7.008;2023-05-14T07:18:56;47775.72;;;-142.53;85.53
4133;BME280;2080;51.038;7.008;2023-05-14T07:21:23;47802.69;;;-142.53;84.98
4133;BME280;2080;51.038;7.008;2023-05-14T07:23:52;47768.03;;;-142.53;84.46
4133;BME280;2080;51.038;7.008;2023-05-14T07:26:17;47771.88;;;-142.53;84.84
4133;BME280;2080;51.038;7.008;2023-05-14T07:28:45;47783.44;;;-142.53;83.00
4133;BME280;2080;51.038;7.008;2023-05-14T07:31:11;47739.13;;;-142.53;82.63
4133;BME280;2080;51.038;7.008;2023-05-14T07:33:38;47783.44;;;-142.53;81.54
4133;BME280;2080;51.038;7.008;2023-05-14T07:36:07;47791.13;;;-142.53;80.84
4133;BME280;2080;51.038;7.008;2023-05-14T07:38:35;47802.69;;;-142.53;78.13
4133;BME280;2080;51.038;7.008;2023-05-14T07:41:00;47771.88;;;-142.53;77.56
4133;BME280;2080;51.038;7.008;2023-05-14T07:43:25;47771.88;;;-142.53;75.46
4133;BME280;2080;51.038;7.008;2023-05-14T07:45:51;47768.03;;;-142.53;74.86
4133;BME280;2080;51.038;7.008;2023-05-14T07:48:16;47766.09;;;-142.53;73.52
4133;BME280;2080;51.038;7.008;2023-05-14T07:50:42;47771.88;;;-142.53;71.42
4133;BME280;2080;51.038;7.008;2023-05-14T07:53:07;47764.16;;;-142.53;69.65
4133;BME280;2080;51.038;7.008;2023-05-14T07:55:32;47783.44;;;-142.53;70.82
4133;BME280;2080;51.038;7.008;2023-05-14T07:58:00;47787.28;;;-142.53;72.19
4133;BME280;2080;51.038;7.008;2023-05-14T08:00:26;47756.47;;;-142.53;71.75
4133;BME280;2080;51.038;7.008;2023-05-14T08:02:51;47779.59;;;-142.53;70.72
4133;BME280;2080;51.038;7.008;2023-05-14T08:05:16;47760.31;;;-142.53;69.27
4133;BME280;2080;51.038;7.008;2023-05-14T08:07:42;47756.47;;;-142.53;68.31
4133;BME280;2080;51.038;7.008;2023-05-14T08:10:10;47798.84;;;-142.53;68.28
4133;BME280;2080;51.038;7.008;2023-05-14T08:12:36;47768.03;;;-142.53;67.13
4133;BME280;2080;51.038;7.008;2023-05-14T08:15:01;47735.28;;;-142.53;65.48
4133;BME280;2080;51.038;7.008;2023-05-14T08:17:29;47731.44;;;-142.53;64.93
4133;BME280;2080;51.038;7.008;2023-05-14T08:19:54;47779.59;;;-142.53;64.21
4133;BME280;2080;51.038;7.008;2023-05-14T08:22:19;47756.47;;;-142.53;64.14
4133;BME280;2080;51.038;7.008;2023-05-14T08:24:48;47779.59;;;-142.53;63.11
4133;BME280;2080;51.038;7.008;2023-05-14T08:27:13;47768.03;;;-142.53;61.64
4133;BME280;2080;51.038;7.008;2023-05-14T08:29:43;47760.31;;;-142.53;61.52
4133;BME280;2080;51.038;7.008;2023-05-14T08:32:08;47754.53;;;-142.53;61.50
4133;BME280;2080;51.038;7.008;2023-05-14T08:34:36;47787.28;;;-142.53;62.51
4133;BME280;2080;51.038;7.008;2023-05-14T08:37:04;47733.34;;;-142.53;62.49
4133;BME280;2080;51.038;7.008;2023-05-14T08:39:29;47775.72;;;-142.53;60.23
4133;BME280;2080;51.038;7.008;2023-05-14T08:41:58;47752.63;;;-142.53;58.72
4133;BME280;2080;51.038;7.008;2023-05-14T08:45:00;47735.28;;;-142.53;58.81
4133;BME280;2080;51.038;7.008;2023-05-14T08:47:29;47716.03;;;-142.53;56.60
4133;BME280;2080;51.038;7.008;2023-05-14T08:50:05;47717.94;;;-142.53;54.69
4133;BME280;2080;51.038;7.008;2023-05-14T08:52:32;47750.69;;;-142.53;54.10
4133;BME280;2080;51.038;7.008;2023-05-14T08:54:59;47717.94;;;-142.53;54.88
4133;BME280;2080;51.038;7.008;2023-05-14T08:57:25;47721.78;;;-142.53;53.74
4133;BME280;2080;51.038;7.008;2023-05-14T08:59:54;47721.78;;;-142.53;53.03
4133;BME280;2080;51.038;7.008;2023-05-14T09:02:28;47714.09;;;-142.53;52.79
4133;BME280;2080;51.038;7.008;2023-05-14T09:04:56;47714.09;;;-142.53;52.72
4133;BME280;2080;51.038;7.008;2023-05-14T09:07:24;47723.72;;;-142.53;50.77
4133;BME280;2080;51.038;7.008;2023-05-14T09:09:53;47737.22;;;-142.53;49.14
4133;BME280;2080;51.038;7.008;2023-05-14T09:12:19;47717.94;;;-142.53;48.70
4133;BME280;2080;51.038;7.008;2023-05-14T09:14:45;47737.22;;;-142.53;48.66
4133;BME280;2080;51.038;7.008;2023-05-14T09:17:11;47735.28;;;-142.53;49.81
4133;BME280;2080;51.038;7.008;2023-05-14T09:19:41;48001.09;;;-142.53;49.56
4133;BME280;2080;51.038;7.008;2023-05-14T09:22:14;47741.06;;;-142.53;49.62
4133;BME280;2080;51.038;7.008;2023-05-14T09:24:40;47733.34;;;-142.53;49.51
4133;BME280;2080;51.038;7.008;2023-05-14T09:27:06;47690.97;;;-142.53;47.77
4133;BME280;2080;51.038;7.008;2023-05-14T09:29:34;47737.22;;;-142.53;46.70
4133;BME280;2080;51.038;7.008;2023-05-14T09:32:01;47706.38;;;-142.53;47.05
4133;BME280;2080;51.038;7.008;2023-05-14T09:34:31;47704.47;;;-142.53;46.16
4133;BME280;2080;51.038;7.008;2023-05-14T09:37:01;47717.94;;;-142.53;45.27
4133;BME280;2080;51.038;7.008;2023-05-14T09:39:30;47710.25;;;-142.53;45.53
4133;BME280;2080;51.038;7.008;2023-05-14T09:42:01;47692.91;;;-142.53;44.30
4133;BME280;2080;51.038;7.008;2023-05-14T09:44:29;47694.84;;;-142.53;44.74
4133;BME280;2080;51.038;7.008;2023-05-14T09:46:54;47698.69;;;-142.53;45.36
4133;BME280;2080;51.038;7.008;2023-05-14T09:49:20;47687.13;;;-142.53;45.42
4133;BME280;2080;51.038;7.008;2023-05-14T09:51:47;47652.47;;;-142.53;45.30
4133;BME280;2080;51.038;7.008;2023-05-14T09:54:16;47679.44;;;-142.53;45.83
4133;BME280;2080;51.038;7.008;2023-05-14T09:56:44;47683.28;;;-142.53;45.51
4133;BME280;2080;51.038;7.008;2023-05-14T09:59:09;47652.47;;;-142.53;44.68
4133;BME280;2080;51.038;7.008;2023-05-14T10:01:38;47821.94;;;-142.53;44.58
4133;BME280;2080;51.038;7.008;2023-05-14T10:04:06;47648.63;;;-142.53;45.10
4133;BME280;2080;51.038;7.008;2023-05-14T10:06:39;47671.72;;;-142.53;46.15
4133;BME280;2080;51.038;7.008;2023-05-14T10:09:11;47690.97;;;-142.53;44.34
4133;BME280;2080;51.038;7.008;2023-05-14T10:11:37;47648.63;;;-142.53;43.35
4133;BME280;2080;51.038;7.008;2023-05-14T10:14:30;47656.31;;;-142.53;43.16
4133;BME280;2080;51.038;7.008;2023-05-14T10:16:58;47675.56;;;-142.53;42.45
4133;BME280;2080;51.038;7.008;2023-05-14T10:19:25;47683.28;;;-142.53;43.72
4133;BME280;2080;51.038;7.008;2023-05-14T10:21:56;47687.13;;;-142.53;41.79
4133;BME280;2080;51.038;7.008;2023-05-14T10:24:26;47656.31;;;-142.53;40.67
4133;BME280;2080;51.038;7.008;2023-05-14T10:26:54;47648.63;;;-142.53;40.27
4133;BME280;2080;51.038;7.008;2023-05-14T10:29:37;47664.03;;;-142.53;40.09
4133;BME280;2080;51.038;7.008;2023-05-14T10:32:07;47664.03;;;-142.53;40.04
4133;BME280;2080;51.038;7.008;2023-05-14T10:37:13;47627.44;;;-142.53;39.94
4133;BME280;2080;51.038;7.008;2023-05-14T10:39:52;47637.06;;;-142.53;39.17
4133;BME280;2080;51.038;7.008;2023-05-14T10:42:20;47610.09;;;-142.53;37.83
4133;BME280;2080;51.038;7.008;2023-05-14T10:44:52;47656.31;;;-142.53;37.92
4133;BME280;2080;51.038;7.008;2023-05-14T10:47:19;47667.88;;;-142.53;37.80
4133;BME280;2080;51.038;7.008;2023-05-14T10:49:45;47725.66;;;-142.53;38.36
4133;BME280;2080;51.038;7.008;2023-05-14T10:52:15;47683.28;;;-142.53;38.65
4133;BME280;2080;51.038;7.008;2023-05-14T10:54:49;47660.16;;;-142.53;38.81
4133;BME280;2080;51.038;7.008;2023-05-14T10:57:18;47621.66;;;-142.53;38.22
4133;BME280;2080;51.038;7.008;2023-05-14T10:59:46;47650.53;;;-142.53;39.05
4133;BME280;2080;51.038;7.008;2023-05-14T11:02:20;47664.03;;;-142.53;38.70
4133;BME280;2080;51.038;7.008;2023-05-14T11:07:27;47615.88;;;-142.53;37.97
4133;BME280;2080;51.038;7.008;2023-05-14T11:09:59;47652.47;;;-142.53;38.59
4133;BME280;2080;51.038;7.008;2023-05-14T11:12:25;47637.06;;;-142.53;38.49
4133;BME280;2080;51.038;7.008;2023-05-14T11:14:51;47646.69;;;-142.53;38.00
4133;BME280;2080;51.038;7.008;2023-05-14T11:17:17;47629.34;;;-142.53;37.71
4133;BME280;2080;51.038;7.008;2023-05-14T11:19:43;47615.88;;;-142.53;36.13
4133;BME280;2080;51.038;7.008;2023-05-14T11:22:11;47644.75;;;-142.53;36.14
4133;BME280;2080;51.038;7.008;2023-05-14T11:24:40;47637.06;;;-142.53;36.46
4133;BME280;2080;51.038;7.008;2023-05-14T11:27:10;47702.53;;;-142.53;36.79
4133;BME280;2080;51.038;7.008;2023-05-14T11:29:36;47671.72;;;-142.53;36.50
4133;BME280;2080;51.038;7.008;2023-05-14T11:32:04;47610.09;;;-142.53;36.15
4133;BME280;2080;51.038;7.008;2023-05-14T11:34:30;47629.34;;;-142.53;35.43
4133;BME280;2080;51.038;7.008;2023-05-14T11:37:01;47631.28;;;-142.53;36.39
4133;BME280;2080;51.038;7.008;2023-05-14T11:39:30;47617.78;;;-142.53;34.70
4133;BME280;2080;51.038;7.008;2023-05-14T11:41:57;47637.06;;;-142.53;35.34
4133;BME280;2080;51.038;7.008;2023-05-14T11:44:23;47602.38;;;-142.53;34.99
4133;BME280;2080;51.038;7.008;2023-05-14T11:46:55;47598.53;;;-142.53;33.71
4133;BME280;2080;51.038;7.008;2023-05-14T11:49:26;47577.34;;;-142.53;34.47
4133;BME280;2080;51.038;7.008;2023-05-14T11:52:05;47610.09;;;-142.53;34.10
4133;BME280;2080;51.038;7.008;2023-05-14T11:54:32;47590.84;;;-142.53;33.68
4133;BME280;2080;51.038;7.008;2023-05-14T11:57:02;47644.75;;;-142.53;32.71
4133;BME280;2080;51.038;7.008;2023-05-14T11:59:31;47594.69;;;-142.53;32.48
4133;BME280;2080;51.038;7.008;2023-05-14T12:01:57;47629.34;;;-142.53;32.19
4133;BME280;2080;51.038;7.008;2023-05-14T12:04:25;47588.91;;;-142.53;33.28
4133;BME280;2080;51.038;7.008;2023-05-14T12:06:51;47652.47;;;-142.53;34.76
4133;BME280;2080;51.038;7.008;2023-05-14T12:09:21;47613.94;;;-142.53;34.99
4133;BME280;2080;51.038;7.008;2023-05-14T12:11:48;47590.84;;;-142.53;35.37
4133;BME280;2080;51.038;7.008;2023-05-14T12:14:19;47640.91;;;-142.53;33.80
4133;BME280;2080;51.038;7.008;2023-05-14T12:16:46;47725.66;;;-142.53;33.70
4133;BME280;2080;51.038;7.008;2023-05-14T12:19:18;47702.53;;;-142.53;31.00
4133;BME280;2080;51.038;7.008;2023-05-14T12:21:47;47592.75;;;-142.53;30.49
4133;BME280;2080;51.038;7.008;2023-05-14T12:24:17;47679.44;;;-142.53;30.53
4133;BME280;2080;51.038;7.008;2023-05-14T12:26:46;47679.44;;;-142.53;30.07
4133;BME280;2080;51.038;7.008;2023-05-14T12:29:13;47656.31;;;-142.53;29.49
4133;BME280;2080;51.038;7.008;2023-05-14T12:31:44;47644.75;;;-142.53;29.69
4133;BME280;2080;51.038;7.008;2023-05-14T12:34:10;47687.13;;;-142.53;29.83
4133;BME280;2080;51.038;7.008;2023-05-14T12:36:36;47650.53;;;-142.53;28.78
4133;BME280;2080;51.038;7.008;2023-05-14T12:39:01;47633.19;;;-142.53;28.84
4133;BME280;2080;51.038;7.008;2023-05-14T12:41:29;47667.88;;;-142.53;28.99
4133;BME280;2080;51.038;7.008;2023-05-14T12:43:54;47606.25;;;-142.53;29.35
4133;BME280;2080;51.038;7.008;2023-05-14T12:46:22;47627.44;;;-142.53;29.45
4133;BME280;2080;51.038;7.008;2023-05-14T12:48:47;47602.38;;;-142.53;28.76
4133;BME280;2080;51.038;7.008;2023-05-14T12:51:13;47637.06;;;-142.53;29.08
4133;BME280;2080;51.038;7.008;2023-05-14T12:53:38;47660.16;;;-142.53;29.19
4133;BME280;2080;51.038;7.008;2023-05-14T12:56:05;47660.16;;;-142.53;29.38
4133;BME280;2080;51.038;7.008;2023-05-14T12:58:33;47660.16;;;-142.53;29.72
4133;BME280;2080;51.038;7.008;2023-05-14T13:01:00;47644.75;;;-142.53;29.71
4133;BME280;2080;51.038;7.008;2023-05-14T13:03:26;47656.31;;;-142.53;29.91
4133;BME280;2080;51.038;7.008;2023-05-14T13:05:54;47638.97;;;-142.53;30.52
4133;BME280;2080;51.038;7.008;2023-05-14T13:08:21;47675.56;;;-142.53;29.86
4133;BME280;2080;51.038;7.008;2023-05-14T13:10:51;47654.38;;;-142.53;30.00